Nyk Deneb — 3EOF8 — position and weather

sailwx.info

Track history (hours):
 
Tides and Currents Weather Stations Pressure Air Temp Water Temp Dewpoint Dewpoint Depression Visibility Wind Speed Wind Dir Waves Ship Positions

Nyk Deneb

Last reported at 2016-Jun-23 23:25 UTC. Time now 2016-Jun-29 07:31 UTC.
Position N 49°53' W 004°51'.

Length 294 m; draft 12.8 m.

Type: Ship (hazmat cat B). MMSI: 355717000.

Date/timePositionNaut miles runAvg speedWind from/ knotsBaromVisibWave heightAir tempDewpointWater temp
2016-Jun-23 23:25N 49°53' W 004°51'1720.0
2016-Jun-23 22:33N 49°57' W 004°25'1919.3
2016-Jun-23 21:33N 50°02' W 003°56'1817.8
2016-Jun-23 20:33N 50°10' W 003°31'1515.3
2016-Jun-23 19:33N 50°25' W 003°25'1211.9
2016-Jun-23 18:34N 50°24' W 003°07'2020.4
2016-Jun-23 17:34N 50°24' W 002°35'2821.8
2016-Jun-23 16:17N 50°25' W 001°52'2322.6
2016-Jun-23 15:17N 50°27' W 001°16'1722.6
2016-Jun-23 14:32N 50°29' W 000°50'2020.9
2016-Jun-23 13:34N 50°31' W 000°18'2019.3
2016-Jun-23 12:32N 50°33' E 000°13'1818.3
2016-Jun-23 11:33N 50°40' E 000°39'2018.9
2016-Jun-23 10:30N 50°51' E 001°06'2021.6
2016-Jun-23 09:34N 51°04' E 001°31'2222.4
2016-Jun-23 08:34N 51°22' E 001°52'2120.8
2016-Jun-23 07:34N 51°37' E 002°14'4219.0
2016-Jun-23 05:22N 52°02' E 003°08'1517.8
2016-Jun-23 04:33N 52°04' E 003°32'1414.4
2016-Jun-23 03:33N 52°02' E 003°55'8 8.1
2016-Jun-23 02:33N 51°57' E 004°05'1 0.9
2016-Jun-23 01:33N 51°57' E 004°04'0 0.0
2016-Jun-23 00:33N 51°57' E 004°04'0 0.0
2016-Jun-22 23:33N 51°57' E 004°04'0 0.0
2016-Jun-22 22:33N 51°57' E 004°04'0 0.0
2016-Jun-22 21:33N 51°57' E 004°04'0 0.0
2016-Jun-22 20:33N 51°57' E 004°04'0 0.0
2016-Jun-22 19:33N 51°57' E 004°04'0 0.0
2016-Jun-22 18:33N 51°57' E 004°04'0 0.0
2016-Jun-22 17:33N 51°57' E 004°04'0 0.0
2016-Jun-22 16:33N 51°57' E 004°04'0 0.0
2016-Jun-22 15:30N 51°57' E 004°04'0 0.0
2016-Jun-22 14:33N 51°57' E 004°04'0 0.0
2016-Jun-22 13:33N 51°57' E 004°04'0 0.0
2016-Jun-22 12:33N 51°57' E 004°04'0 0.0
2016-Jun-22 11:30N 51°57' E 004°04'0 0.0
2016-Jun-22 10:33N 51°57' E 004°04'0 0.0
2016-Jun-22 09:33N 51°57' E 004°04'0 0.0
2016-Jun-22 08:33N 51°57' E 004°04'0 0.0
2016-Jun-22 07:33N 51°57' E 004°04'0 0.0
2016-Jun-22 06:33N 51°57' E 004°04'3 3.3
2016-Jun-22 05:34N 51°60' E 004°01'1111.0
2016-Jun-22 04:33N 52°05' E 003°45'8 7.7
2016-Jun-22 03:34N 52°13' E 003°42'4 4.4
2016-Jun-22 02:33N 52°16' E 003°46'1514.7
2016-Jun-22 01:34N 52°30' E 003°51'1717.3
2016-Jun-22 00:33N 52°47' E 003°56'1716.9
2016-Jun-21 23:33N 53°02' E 004°10'1717.5
2016-Jun-21 22:34N 53°15' E 004°29'1817.6
2016-Jun-21 21:33N 53°30' E 004°45'1918.7
2016-Jun-21 20:34N 53°37' E 005°14'1818.4
2016-Jun-21 19:34N 53°43' E 005°44'1918.9
2016-Jun-21 18:34N 53°49' E 006°14'2020.0
2016-Jun-21 17:33N 53°54' E 006°47'2121.0
2016-Jun-21 16:33N 53°58' E 007°22'1716.8
2016-Jun-21 15:33N 53°53' E 007°49'1514.5
2016-Jun-21 14:33N 53°46' E 008°11'1414.4
2016-Jun-21 13:33N 53°37' E 008°30'2 2.1
2016-Jun-21 12:32N 53°35' E 008°32'0 0.0
2016-Jun-21 11:23N 53°35' E 008°32'0 0.0
2016-Jun-21 10:29N 53°35' E 008°32'0 0.0
2016-Jun-21 09:32N 53°35' E 008°32'0 0.0
2016-Jun-21 08:29N 53°35' E 008°32'0 0.0
2016-Jun-21 07:32N 53°35' E 008°32'0 0.0
2016-Jun-21 04:32N 53°35' E 008°32'0 0.0
2016-Jun-21 03:32N 53°35' E 008°32'0 0.0
2016-Jun-21 02:32N 53°35' E 008°32'0 0.0
2016-Jun-21 01:32N 53°35' E 008°32'0 0.0
2016-Jun-21 00:32N 53°35' E 008°32'0 0.0
2016-Jun-20 23:32N 53°35' E 008°32'0 0.0
2016-Jun-20 22:32N 53°35' E 008°32'0 0.0
2016-Jun-20 21:23N 53°35' E 008°32'0 0.0
2016-Jun-20 20:32N 53°35' E 008°32'0 0.0
2016-Jun-20 19:32N 53°35' E 008°32'0 0.0
2016-Jun-20 18:32N 53°35' E 008°32'0 0.0
2016-Jun-20 17:26N 53°35' E 008°32'0 0.0
2016-Jun-20 16:32N 53°35' E 008°32'0 0.0
2016-Jun-20 15:32N 53°35' E 008°32'0 0.0
2016-Jun-20 14:32N 53°35' E 008°32'0 0.0
2016-Jun-20 13:29N 53°35' E 008°32'0 0.0
2016-Jun-20 12:29N 53°35' E 008°32'0 0.0
2016-Jun-20 11:32N 53°35' E 008°32'0 0.0
2016-Jun-20 10:32N 53°35' E 008°32'0 0.0
2016-Jun-20 09:32N 53°35' E 008°32'0 0.0
2016-Jun-20 08:29N 53°35' E 008°32'0 0.0
2016-Jun-20 07:32N 53°35' E 008°32'0 0.1
2016-Jun-20 06:33N 53°35' E 008°32'9 9.1
2016-Jun-20 05:33N 53°42' E 008°21'1515.0
2016-Jun-20 04:33N 53°51' E 008°01'1010.5
2016-Jun-20 03:33N 53°53' E 007°44'8 7.7
2016-Jun-20 02:33N 53°52' E 007°31'1 1.4
2016-Jun-20 01:33N 53°51' E 007°31'2 1.7
2016-Jun-20 00:33N 53°52' E 007°32'1 0.7
2016-Jun-19 23:33N 53°52' E 007°32'1 1.1
2016-Jun-19 22:33N 53°51' E 007°31'9 8.7
2016-Jun-19 21:33N 53°51' E 007°16'1414.4
2016-Jun-19 20:33N 53°49' E 006°52'1514.7
2016-Jun-19 19:34N 53°46' E 006°28'1514.5
2016-Jun-19 18:33N 53°42' E 006°04'1514.5
2016-Jun-19 17:33N 53°37' E 005°41'1514.8
2016-Jun-19 16:33N 53°32' E 005°17'1514.5
2016-Jun-19 15:33N 53°27' E 004°55'2813.8
2016-Jun-19 13:30N 53°04' E 004°26'1313.5
2016-Jun-19 12:33N 52°53' E 004°15'1712.9
2016-Jun-19 11:16N 52°40' E 003°58'912.8
2016-Jun-19 10:33N 52°33' E 003°49'1212.5
2016-Jun-19 09:33N 52°22' E 003°39'1212.2
2016-Jun-19 08:33N 52°11' E 003°31'1311.6
2016-Jun-19 07:24N 51°58' E 003°24'1111.4
2016-Jun-19 06:26N 51°48' E 003°18'910.5
2016-Jun-19 05:33N 51°39' E 003°12'1616.2
2016-Jun-19 04:33N 51°25' E 003°00'1616.3
2016-Jun-19 03:33N 51°25' E 003°26'1212.0
2016-Jun-19 02:34N 51°22' E 003°45'1110.9
2016-Jun-19 01:34N 51°24' E 004°02'9 9.3
2016-Jun-19 00:33N 51°21' E 004°16'0 0.3
2016-Jun-18 23:34N 51°20' E 004°16'0 0.0
2016-Jun-18 22:34N 51°20' E 004°16'0 0.0
2016-Jun-18 21:33N 51°20' E 004°16'0 0.0
2016-Jun-18 20:31N 51°20' E 004°16'0 0.0
2016-Jun-18 19:34N 51°20' E 004°16'0 0.0
2016-Jun-18 18:33N 51°20' E 004°16'0 0.0
2016-Jun-18 17:31N 51°20' E 004°16'0 0.0
2016-Jun-18 16:34N 51°20' E 004°16'0 0.0
2016-Jun-18 15:29N 51°20' E 004°16'0 0.0
2016-Jun-18 14:33N 51°20' E 004°16'0 0.0
2016-Jun-18 13:33N 51°20' E 004°16'0 0.0
2016-Jun-18 12:33N 51°20' E 004°16'0 0.0
2016-Jun-18 11:34N 51°20' E 004°16'0 0.0
2016-Jun-18 10:34N 51°20' E 004°16'0 0.0
2016-Jun-18 09:34N 51°20' E 004°16'0 0.0
2016-Jun-18 08:33N 51°20' E 004°16'0 0.2
2016-Jun-18 07:33N 51°20' E 004°16'1 1.5
2016-Jun-18 06:33N 51°21' E 004°14'8 7.9
2016-Jun-18 05:33N 51°24' E 004°02'9 8.6
2016-Jun-18 04:34N 51°21' E 003°49'1010.3
2016-Jun-18 03:34N 51°25' E 003°34'1010.3
2016-Jun-18 02:34N 51°24' E 003°18'1414.0
2016-Jun-18 01:33N 51°22' E 002°56'1212.1
2016-Jun-18 00:33N 51°22' E 002°36'5 4.6
2016-Jun-17 23:33N 51°22' E 002°29'8 7.8
2016-Jun-17 22:34N 51°18' E 002°18'1313.2
2016-Jun-17 21:34N 51°11' E 001°60'1615.8
2016-Jun-17 20:34N 51°02' E 001°40'1515.0
2016-Jun-17 19:33N 50°50' E 001°24'1414.4
2016-Jun-17 18:33N 50°38' E 001°13'3015.0
2016-Jun-17 16:33N 50°24' E 000°31'1615.7
2016-Jun-17 15:33N 50°20' E 000°07'1615.8
2016-Jun-17 14:34N 50°22' W 000°18'1615.7
2016-Jun-17 13:34N 50°26' W 000°41'9 8.6
2016-Jun-17 12:33N 50°32' W 000°52'1 1.4
2016-Jun-17 11:33N 50°32' W 000°50'2 1.6
2016-Jun-17 10:33N 50°32' W 000°48'1 1.2
2016-Jun-17 09:33N 50°32' W 000°46'0 0.5
2016-Jun-17 08:33N 50°33' W 000°45'1 0.7
2016-Jun-17 07:33N 50°33' W 000°45'9 8.6
2016-Jun-17 06:33N 50°39' W 000°55'1110.9
2016-Jun-17 05:33N 50°46' W 001°09'9 9.1
2016-Jun-17 04:33N 50°51' W 001°21'6 5.5
2016-Jun-17 03:33N 50°54' W 001°28'0 0.0
2016-Jun-16 10:25N 50°55' W 001°28'4 0.6
2016-Jun-16 04:33N 50°52' W 001°23'8 8.1
2016-Jun-16 03:34N 50°46' W 001°15'1413.5
2016-Jun-16 02:33N 50°39' W 000°57'8 7.6
2016-Jun-16 01:33N 50°32' W 001°01'9 8.9
2016-Jun-16 00:33N 50°28' W 001°13'1413.7
2016-Jun-15 23:32N 50°25' W 001°35'1613.4
2016-Jun-15 22:21N 50°21' W 001°59'1012.8
2016-Jun-15 21:33N 50°18' W 002°14'1313.0
2016-Jun-15 20:33N 50°15' W 002°34'1413.6
2016-Jun-15 19:33N 50°10' W 002°53'1414.2
2016-Jun-15 18:33N 50°07' W 003°15'1414.5
2016-Jun-15 17:33N 50°03' W 003°37'1514.6
2016-Jun-15 16:33N 49°59' W 003°59'1414.5
2016-Jun-15 15:34N 49°55' W 004°20'1414.5
2016-Jun-15 14:34N 49°52' W 004°42'1514.5
2016-Jun-15 13:33N 49°48' W 005°04'1514.5
2016-Jun-15 12:32N 49°44' W 005°26'  
Track history (hours):
 
Tides and Currents Weather Stations Pressure Air Temp Water Temp Dewpoint Dewpoint Depression Visibility Wind Speed Wind Dir Waves Ship Positions

Nyk Deneb

Last reported at 2016-Jun-23 23:25 UTC. Time now 2016-Jun-29 07:31 UTC.
Position N 49°53' W 004°51'.

Length 294 m; draft 12.8 m.

Type: Ship (hazmat cat B). MMSI: 355717000.

Date/timePositionNaut miles runAvg speedWind from/ knotsBaromVisibWave heightAir tempDewpointWater temp
2016-Jun-23 23:25N 49°53' W 004°51'1720.0
2016-Jun-23 22:33N 49°57' W 004°25'1919.3
2016-Jun-23 21:33N 50°02' W 003°56'1817.8
2016-Jun-23 20:33N 50°10' W 003°31'1515.3
2016-Jun-23 19:33N 50°25' W 003°25'1211.9
2016-Jun-23 18:34N 50°24' W 003°07'2020.4
2016-Jun-23 17:34N 50°24' W 002°35'2821.8
2016-Jun-23 16:17N 50°25' W 001°52'2322.6
2016-Jun-23 15:17N 50°27' W 001°16'1722.6
2016-Jun-23 14:32N 50°29' W 000°50'2020.9
2016-Jun-23 13:34N 50°31' W 000°18'2019.3
2016-Jun-23 12:32N 50°33' E 000°13'1818.3
2016-Jun-23 11:33N 50°40' E 000°39'2018.9
2016-Jun-23 10:30N 50°51' E 001°06'2021.6
2016-Jun-23 09:34N 51°04' E 001°31'2222.4
2016-Jun-23 08:34N 51°22' E 001°52'2120.8
2016-Jun-23 07:34N 51°37' E 002°14'4219.0
2016-Jun-23 05:22N 52°02' E 003°08'1517.8
2016-Jun-23 04:33N 52°04' E 003°32'1414.4
2016-Jun-23 03:33N 52°02' E 003°55'8 8.1
2016-Jun-23 02:33N 51°57' E 004°05'1 0.9
2016-Jun-23 01:33N 51°57' E 004°04'0 0.0
2016-Jun-23 00:33N 51°57' E 004°04'0 0.0
2016-Jun-22 23:33N 51°57' E 004°04'0 0.0
2016-Jun-22 22:33N 51°57' E 004°04'0 0.0
2016-Jun-22 21:33N 51°57' E 004°04'0 0.0
2016-Jun-22 20:33N 51°57' E 004°04'0 0.0
2016-Jun-22 19:33N 51°57' E 004°04'0 0.0
2016-Jun-22 18:33N 51°57' E 004°04'0 0.0
2016-Jun-22 17:33N 51°57' E 004°04'0 0.0
2016-Jun-22 16:33N 51°57' E 004°04'0 0.0
2016-Jun-22 15:30N 51°57' E 004°04'0 0.0
2016-Jun-22 14:33N 51°57' E 004°04'0 0.0
2016-Jun-22 13:33N 51°57' E 004°04'0 0.0
2016-Jun-22 12:33N 51°57' E 004°04'0 0.0
2016-Jun-22 11:30N 51°57' E 004°04'0 0.0
2016-Jun-22 10:33N 51°57' E 004°04'0 0.0
2016-Jun-22 09:33N 51°57' E 004°04'0 0.0
2016-Jun-22 08:33N 51°57' E 004°04'0 0.0
2016-Jun-22 07:33N 51°57' E 004°04'0 0.0
2016-Jun-22 06:33N 51°57' E 004°04'3 3.3
2016-Jun-22 05:34N 51°60' E 004°01'1111.0
2016-Jun-22 04:33N 52°05' E 003°45'8 7.7
2016-Jun-22 03:34N 52°13' E 003°42'4 4.4
2016-Jun-22 02:33N 52°16' E 003°46'1514.7
2016-Jun-22 01:34N 52°30' E 003°51'1717.3
2016-Jun-22 00:33N 52°47' E 003°56'1716.9
2016-Jun-21 23:33N 53°02' E 004°10'1717.5
2016-Jun-21 22:34N 53°15' E 004°29'1817.6
2016-Jun-21 21:33N 53°30' E 004°45'1918.7
2016-Jun-21 20:34N 53°37' E 005°14'1818.4
2016-Jun-21 19:34N 53°43' E 005°44'1918.9
2016-Jun-21 18:34N 53°49' E 006°14'2020.0
2016-Jun-21 17:33N 53°54' E 006°47'2121.0
2016-Jun-21 16:33N 53°58' E 007°22'1716.8
2016-Jun-21 15:33N 53°53' E 007°49'1514.5
2016-Jun-21 14:33N 53°46' E 008°11'1414.4
2016-Jun-21 13:33N 53°37' E 008°30'2 2.1
2016-Jun-21 12:32N 53°35' E 008°32'0 0.0
2016-Jun-21 11:23N 53°35' E 008°32'0 0.0
2016-Jun-21 10:29N 53°35' E 008°32'0 0.0
2016-Jun-21 09:32N 53°35' E 008°32'0 0.0
2016-Jun-21 08:29N 53°35' E 008°32'0 0.0
2016-Jun-21 07:32N 53°35' E 008°32'0 0.0
2016-Jun-21 04:32N 53°35' E 008°32'0 0.0
2016-Jun-21 03:32N 53°35' E 008°32'0 0.0
2016-Jun-21 02:32N 53°35' E 008°32'0 0.0
2016-Jun-21 01:32N 53°35' E 008°32'0 0.0
2016-Jun-21 00:32N 53°35' E 008°32'0 0.0
2016-Jun-20 23:32N 53°35' E 008°32'0 0.0
2016-Jun-20 22:32N 53°35' E 008°32'0 0.0
2016-Jun-20 21:23N 53°35' E 008°32'0 0.0
2016-Jun-20 20:32N 53°35' E 008°32'0 0.0
2016-Jun-20 19:32N 53°35' E 008°32'0 0.0
2016-Jun-20 18:32N 53°35' E 008°32'0 0.0
2016-Jun-20 17:26N 53°35' E 008°32'0 0.0
2016-Jun-20 16:32N 53°35' E 008°32'0 0.0
2016-Jun-20 15:32N 53°35' E 008°32'0 0.0
2016-Jun-20 14:32N 53°35' E 008°32'0 0.0
2016-Jun-20 13:29N 53°35' E 008°32'0 0.0
2016-Jun-20 12:29N 53°35' E 008°32'0 0.0
2016-Jun-20 11:32N 53°35' E 008°32'0 0.0
2016-Jun-20 10:32N 53°35' E 008°32'0 0.0
2016-Jun-20 09:32N 53°35' E 008°32'0 0.0
2016-Jun-20 08:29N 53°35' E 008°32'0 0.0
2016-Jun-20 07:32N 53°35' E 008°32'0 0.1
2016-Jun-20 06:33N 53°35' E 008°32'9 9.1
2016-Jun-20 05:33N 53°42' E 008°21'1515.0
2016-Jun-20 04:33N 53°51' E 008°01'1010.5
2016-Jun-20 03:33N 53°53' E 007°44'8 7.7
2016-Jun-20 02:33N 53°52' E 007°31'1 1.4
2016-Jun-20 01:33N 53°51' E 007°31'2 1.7
2016-Jun-20 00:33N 53°52' E 007°32'1 0.7
2016-Jun-19 23:33N 53°52' E 007°32'1 1.1
2016-Jun-19 22:33N 53°51' E 007°31'9 8.7
2016-Jun-19 21:33N 53°51' E 007°16'1414.4
2016-Jun-19 20:33N 53°49' E 006°52'1514.7
2016-Jun-19 19:34N 53°46' E 006°28'1514.5
2016-Jun-19 18:33N 53°42' E 006°04'1514.5
2016-Jun-19 17:33N 53°37' E 005°41'1514.8
2016-Jun-19 16:33N 53°32' E 005°17'1514.5
2016-Jun-19 15:33N 53°27' E 004°55'2813.8
2016-Jun-19 13:30N 53°04' E 004°26'1313.5
2016-Jun-19 12:33N 52°53' E 004°15'1712.9
2016-Jun-19 11:16N 52°40' E 003°58'912.8
2016-Jun-19 10:33N 52°33' E 003°49'1212.5
2016-Jun-19 09:33N 52°22' E 003°39'1212.2
2016-Jun-19 08:33N 52°11' E 003°31'1311.6
2016-Jun-19 07:24N 51°58' E 003°24'1111.4
2016-Jun-19 06:26N 51°48' E 003°18'910.5
2016-Jun-19 05:33N 51°39' E 003°12'1616.2
2016-Jun-19 04:33N 51°25' E 003°00'1616.3
2016-Jun-19 03:33N 51°25' E 003°26'1212.0
2016-Jun-19 02:34N 51°22' E 003°45'1110.9
2016-Jun-19 01:34N 51°24' E 004°02'9 9.3
2016-Jun-19 00:33N 51°21' E 004°16'0 0.3
2016-Jun-18 23:34N 51°20' E 004°16'0 0.0
2016-Jun-18 22:34N 51°20' E 004°16'0 0.0
2016-Jun-18 21:33N 51°20' E 004°16'0 0.0
2016-Jun-18 20:31N 51°20' E 004°16'0 0.0
2016-Jun-18 19:34N 51°20' E 004°16'0 0.0
2016-Jun-18 18:33N 51°20' E 004°16'0 0.0
2016-Jun-18 17:31N 51°20' E 004°16'0 0.0
2016-Jun-18 16:34N 51°20' E 004°16'0 0.0
2016-Jun-18 15:29N 51°20' E 004°16'0 0.0
2016-Jun-18 14:33N 51°20' E 004°16'0 0.0
2016-Jun-18 13:33N 51°20' E 004°16'0 0.0
2016-Jun-18 12:33N 51°20' E 004°16'0 0.0
2016-Jun-18 11:34N 51°20' E 004°16'0 0.0
2016-Jun-18 10:34N 51°20' E 004°16'0 0.0
2016-Jun-18 09:34N 51°20' E 004°16'0 0.0
2016-Jun-18 08:33N 51°20' E 004°16'0 0.2
2016-Jun-18 07:33N 51°20' E 004°16'1 1.5
2016-Jun-18 06:33N 51°21' E 004°14'8 7.9
2016-Jun-18 05:33N 51°24' E 004°02'9 8.6
2016-Jun-18 04:34N 51°21' E 003°49'1010.3
2016-Jun-18 03:34N 51°25' E 003°34'1010.3
2016-Jun-18 02:34N 51°24' E 003°18'1414.0
2016-Jun-18 01:33N 51°22' E 002°56'1212.1
2016-Jun-18 00:33N 51°22' E 002°36'5 4.6
2016-Jun-17 23:33N 51°22' E 002°29'8 7.8
2016-Jun-17 22:34N 51°18' E 002°18'1313.2
2016-Jun-17 21:34N 51°11' E 001°60'1615.8
2016-Jun-17 20:34N 51°02' E 001°40'1515.0
2016-Jun-17 19:33N 50°50' E 001°24'1414.4
2016-Jun-17 18:33N 50°38' E 001°13'3015.0
2016-Jun-17 16:33N 50°24' E 000°31'1615.7
2016-Jun-17 15:33N 50°20' E 000°07'1615.8
2016-Jun-17 14:34N 50°22' W 000°18'1615.7
2016-Jun-17 13:34N 50°26' W 000°41'9 8.6
2016-Jun-17 12:33N 50°32' W 000°52'1 1.4
2016-Jun-17 11:33N 50°32' W 000°50'2 1.6
2016-Jun-17 10:33N 50°32' W 000°48'1 1.2
2016-Jun-17 09:33N 50°32' W 000°46'0 0.5
2016-Jun-17 08:33N 50°33' W 000°45'1 0.7
2016-Jun-17 07:33N 50°33' W 000°45'9 8.6
2016-Jun-17 06:33N 50°39' W 000°55'1110.9
2016-Jun-17 05:33N 50°46' W 001°09'9 9.1
2016-Jun-17 04:33N 50°51' W 001°21'6 5.5
2016-Jun-17 03:33N 50°54' W 001°28'0 0.0
2016-Jun-16 10:25N 50°55' W 001°28'4 0.6
2016-Jun-16 04:33N 50°52' W 001°23'8 8.1
2016-Jun-16 03:34N 50°46' W 001°15'1413.5
2016-Jun-16 02:33N 50°39' W 000°57'8 7.6
2016-Jun-16 01:33N 50°32' W 001°01'9 8.9
2016-Jun-16 00:33N 50°28' W 001°13'1413.7
2016-Jun-15 23:32N 50°25' W 001°35'1613.4
2016-Jun-15 22:21N 50°21' W 001°59'1012.8
2016-Jun-15 21:33N 50°18' W 002°14'1313.0
2016-Jun-15 20:33N 50°15' W 002°34'1413.6
2016-Jun-15 19:33N 50°10' W 002°53'1414.2
2016-Jun-15 18:33N 50°07' W 003°15'1414.5
2016-Jun-15 17:33N 50°03' W 003°37'1514.6
2016-Jun-15 16:33N 49°59' W 003°59'1414.5
2016-Jun-15 15:34N 49°55' W 004°20'1414.5
2016-Jun-15 14:34N 49°52' W 004°42'1514.5
2016-Jun-15 13:33N 49°48' W 005°04'1514.5
2016-Jun-15 12:32N 49°44' W 005°26'  

Dump ship's entire track history